createdAt,value
2018-12-22T00:04:45.265Z,10.64
2018-12-22T00:10:40.228Z,11.23
2018-12-22T00:16:35.349Z,13.13
2018-12-22T00:22:30.233Z,11.63
2018-12-22T00:28:25.244Z,5.99
2018-12-22T00:34:20.279Z,13.48
2018-12-22T00:40:15.255Z,12.16
2018-12-22T00:46:10.251Z,8.34
2018-12-22T00:52:05.245Z,12.35
2018-12-22T00:58:00.316Z,9.94
2018-12-22T01:03:55.248Z,7.3
2018-12-22T01:09:50.266Z,12.07
2018-12-22T01:15:45.262Z,15.05
2018-12-22T01:21:40.359Z,12.65
2018-12-22T01:27:35.301Z,10.61
2018-12-22T01:33:30.288Z,14.46
2018-12-22T01:39:25.292Z,18.2
2018-12-22T01:45:20.292Z,12.6
2018-12-22T01:51:15.304Z,10.76
2018-12-22T01:57:10.312Z,13.59
2018-12-22T02:03:05.300Z,14.95
2018-12-22T02:09:00.310Z,9.11
2018-12-22T02:14:55.296Z,12.85
2018-12-22T02:20:50.294Z,12.87
2018-12-22T02:26:45.310Z,11.19
2018-12-22T02:32:40.358Z,12.81
2018-12-22T02:38:35.341Z,12.38
2018-12-22T02:44:30.339Z,14.89
2018-12-22T02:50:25.318Z,17.83
2018-12-22T02:56:20.350Z,20.51
2018-12-22T03:02:15.328Z,17.85
2018-12-22T03:08:10.358Z,15.97
2018-12-22T03:14:05.320Z,16.46
2018-12-22T03:20:00.509Z,14.65
2018-12-22T03:25:55.389Z,14.22
2018-12-22T03:31:50.328Z,19.31
2018-12-22T03:37:45.368Z,14.28
2018-12-22T03:43:40.338Z,17.17
2018-12-22T03:49:35.423Z,22.76
2018-12-22T03:55:30.372Z,16.83
2018-12-22T04:01:25.491Z,15.32
2018-12-22T04:07:20.393Z,23.97
2018-12-22T04:13:15.362Z,12.87
2018-12-22T04:19:10.358Z,11.26
2018-12-22T04:25:05.406Z,9.7
2018-12-22T04:31:00.425Z,14.4
2018-12-22T04:36:55.367Z,14.36
2018-12-22T04:42:50.385Z,7.96
2018-12-22T04:48:45.391Z,6.67
2018-12-22T04:54:40.379Z,5.06
2018-12-22T05:00:35.398Z,7.64
2018-12-22T05:06:30.393Z,13.17
2018-12-22T05:12:25.438Z,9.05
2018-12-22T05:18:20.415Z,9.45
2018-12-22T05:24:15.400Z,9.37
2018-12-22T05:30:10.419Z,9.31
2018-12-22T05:36:05.416Z,6.41
2018-12-22T05:42:00.436Z,3.98
2018-12-22T05:47:55.443Z,9.28
2018-12-22T05:53:50.423Z,10.51
2018-12-22T05:59:45.435Z,5.64
2018-12-22T06:05:40.419Z,6.46
2018-12-22T06:11:35.452Z,8.24
2018-12-22T06:17:30.441Z,7.41
2018-12-22T06:23:26.698Z,10.06
2018-12-22T06:29:20.526Z,7.38
2018-12-22T06:35:15.451Z,10.25
2018-12-22T06:41:10.455Z,10.13
2018-12-22T06:47:05.437Z,11.37
2018-12-22T06:53:00.473Z,10.27
2018-12-22T06:58:55.451Z,8.66
2018-12-22T07:04:50.465Z,9.81
2018-12-22T07:10:45.496Z,8.67
2018-12-22T07:16:40.485Z,10.28
2018-12-22T07:22:35.470Z,13.35
2018-12-22T07:28:30.466Z,15.17
2018-12-22T07:34:25.489Z,9.83
2018-12-22T07:40:20.503Z,10.82
2018-12-22T07:46:15.497Z,27.69
2018-12-22T07:52:10.488Z,25.34
2018-12-22T07:58:05.551Z,17.96
2018-12-22T08:04:00.516Z,26.77
2018-12-22T08:09:55.494Z,32
2018-12-22T08:15:50.493Z,36.22
2018-12-22T08:21:45.501Z,30.71
2018-12-22T08:27:40.536Z,28.95
2018-12-22T08:33:35.519Z,25.58
2018-12-22T08:39:30.505Z,30.58
2018-12-22T08:45:25.561Z,30.63
2018-12-22T08:51:20.540Z,40
2018-12-22T08:57:15.543Z,36.29
2018-12-22T09:03:10.534Z,45.01
2018-12-22T09:09:05.527Z,42.69
2018-12-22T09:15:00.544Z,20.88
2018-12-22T09:20:55.567Z,87.01
2018-12-22T09:26:50.562Z,73.34
2018-12-22T09:32:45.553Z,76.68
2018-12-22T09:38:40.556Z,17.59
2018-12-22T09:44:35.534Z,18.27
2018-12-22T09:50:30.556Z,21.41
2018-12-22T09:56:25.557Z,25.57
2018-12-22T10:02:20.559Z,21.47
2018-12-22T10:08:15.580Z,12.99
2018-12-22T10:14:10.571Z,8.34
2018-12-22T10:20:05.683Z,12.53
2018-12-22T10:26:00.566Z,13.76
2018-12-22T10:31:55.627Z,18.72
2018-12-22T10:37:50.572Z,69.55
2018-12-22T10:43:45.574Z,44.83
2018-12-22T10:49:40.609Z,41.3
2018-12-22T10:55:35.593Z,34.11
2018-12-22T11:01:30.608Z,42.97
2018-12-22T11:07:25.629Z,45.34
2018-12-22T11:13:20.590Z,47.27
2018-12-22T11:19:15.635Z,20.71
2018-12-22T11:25:10.601Z,18.47
2018-12-22T11:31:05.628Z,19.85
2018-12-22T11:37:00.602Z,25.74
2018-12-22T11:42:55.614Z,38.32
2018-12-22T11:48:50.634Z,36.55
2018-12-22T11:54:45.625Z,46.29
2018-12-22T12:00:40.679Z,35.25
2018-12-22T12:06:35.636Z,35.68
2018-12-22T12:12:30.640Z,35.51
2018-12-22T12:18:25.644Z,27.85
2018-12-22T12:24:20.680Z,35.81
2018-12-22T12:30:15.648Z,33.25
2018-12-22T12:36:10.714Z,39.99
2018-12-22T12:42:05.651Z,34.6
2018-12-22T12:48:00.640Z,35.43
2018-12-22T12:53:55.725Z,37.92
2018-12-22T12:59:50.664Z,58.85
2018-12-22T13:05:45.677Z,55.88
2018-12-22T13:11:40.672Z,65.01
2018-12-22T13:17:35.685Z,55.96
2018-12-22T13:23:30.684Z,45.1
2018-12-22T13:29:25.768Z,58.08
2018-12-22T13:35:20.702Z,54.23
2018-12-22T13:41:15.715Z,46.05
2018-12-22T13:47:10.718Z,45.53
2018-12-22T13:53:05.696Z,47.8
2018-12-22T13:59:00.687Z,48.03
2018-12-22T14:04:55.702Z,78.27
2018-12-22T14:10:50.705Z,64.25
2018-12-22T14:16:45.696Z,74.16
2018-12-22T14:22:40.728Z,88.46
2018-12-22T14:28:35.724Z,112.77
2018-12-22T14:34:30.740Z,77.07
2018-12-22T14:40:25.715Z,57.69
2018-12-22T14:46:20.719Z,43.68
2018-12-22T14:52:15.727Z,47.65
2018-12-22T14:58:10.780Z,47.06
2018-12-22T15:04:05.769Z,52.37
2018-12-22T15:10:00.777Z,84.62
2018-12-22T15:15:55.735Z,142.86
2018-12-22T15:21:50.753Z,146.29
2018-12-22T15:27:45.785Z,156.79
2018-12-22T15:33:40.778Z,166.53
2018-12-22T15:39:35.796Z,132.79
2018-12-22T15:45:30.754Z,136.27
2018-12-22T15:51:25.764Z,77.16
2018-12-22T15:57:20.782Z,91.84
2018-12-22T16:03:15.847Z,139.74
2018-12-22T16:09:10.755Z,68.33
2018-12-22T16:15:05.789Z,49.42
2018-12-22T16:21:00.782Z,38.14
2018-12-22T16:26:55.792Z,33.64
2018-12-22T16:32:50.826Z,32.3
2018-12-22T16:38:45.782Z,26.23
2018-12-22T16:44:40.781Z,50.82
2018-12-22T16:50:35.806Z,54.37
2018-12-22T16:56:30.823Z,91.74
2018-12-22T17:02:25.837Z,80.7
2018-12-22T17:08:20.848Z,50.98
2018-12-22T17:14:15.945Z,102.95
2018-12-22T17:20:10.820Z,66.17
2018-12-22T17:26:05.816Z,34.55
2018-12-22T17:32:00.808Z,66.27
2018-12-22T17:37:55.833Z,63.51
2018-12-22T17:43:50.832Z,77.51
2018-12-22T17:49:45.859Z,76.13
2018-12-22T17:55:40.840Z,81.32
2018-12-22T18:01:35.838Z,101.85
2018-12-22T18:07:30.837Z,88.95
2018-12-22T18:13:27.916Z,121.82
2018-12-22T18:19:20.856Z,112.91
2018-12-22T18:25:15.919Z,119.41
2018-12-22T18:31:10.920Z,73.66
2018-12-22T18:37:05.857Z,68.02
2018-12-22T18:43:00.839Z,58.37
2018-12-22T18:48:55.879Z,67.16
2018-12-22T18:54:50.884Z,70.98
2018-12-22T19:00:45.937Z,73.23
2018-12-22T19:06:40.870Z,64.48
2018-12-22T19:12:35.918Z,45.79
2018-12-22T19:18:30.872Z,47.4
2018-12-22T19:24:25.869Z,41.66
2018-12-22T19:30:20.884Z,56.29
2018-12-22T19:36:15.944Z,42.5
2018-12-22T19:42:10.894Z,47.03
2018-12-22T19:48:05.915Z,64.79
2018-12-22T19:54:00.915Z,66.67
2018-12-22T19:59:55.930Z,81.47
2018-12-22T20:05:50.915Z,72.59
2018-12-22T20:11:45.909Z,65.37
2018-12-22T20:17:40.916Z,51.6
2018-12-22T20:23:35.916Z,45.74
2018-12-22T20:29:30.926Z,39.78
2018-12-22T20:35:26.054Z,32.2
2018-12-22T20:41:20.936Z,48.5
2018-12-22T20:47:16.004Z,51.21
2018-12-22T20:53:10.954Z,35.63
2018-12-22T20:59:05.943Z,33.24
2018-12-22T21:05:00.953Z,34.95
2018-12-22T21:10:55.942Z,33.28
2018-12-22T21:16:50.949Z,41.42
2018-12-22T21:22:45.969Z,48.3
2018-12-22T21:28:40.978Z,44.25
2018-12-22T21:34:35.989Z,45.56
2018-12-22T21:40:30.991Z,42.2
2018-12-22T21:46:25.977Z,84.01
2018-12-22T21:52:20.963Z,102.85
2018-12-22T21:58:16.003Z,89.32
2018-12-22T22:04:10.971Z,87.53
2018-12-22T22:10:06.030Z,81.7
2018-12-22T22:16:00.984Z,58.46
2018-12-22T22:21:55.979Z,76.36
2018-12-22T22:27:50.997Z,71.48
2018-12-22T22:33:46.016Z,61.46
2018-12-22T22:39:41.006Z,39.37
2018-12-22T22:45:35.988Z,37.07
2018-12-22T22:51:31.002Z,33.67
2018-12-22T22:57:26.014Z,25.85
2018-12-22T23:03:21.032Z,50.05
2018-12-22T23:09:16.045Z,57.83
2018-12-22T23:15:11.066Z,55.66
2018-12-22T23:21:06.073Z,69.02
2018-12-22T23:27:01.018Z,57.93
2018-12-22T23:32:56.029Z,69.13
2018-12-22T23:38:51.029Z,62.71
2018-12-22T23:44:47.959Z,57.69
2018-12-22T23:50:41.045Z,54.05
2018-12-22T23:56:36.030Z,53.47
